sensor_id;sensor_type;location;lat;lon;timestamp;pressure;altitude;pressure_sealevel;temperature
18713;BMP280;9485;49.386;8.674;2023-09-18T00:05:15;99636.75;;;27.31
18713;BMP280;9485;49.386;8.674;2023-09-18T00:10:36;99619.00;;;27.25
18713;BMP280;9485;49.386;8.674;2023-09-18T00:15:58;99598.84;;;27.27
18713;BMP280;9485;49.386;8.674;2023-09-18T00:21:21;99591.16;;;27.31
18713;BMP280;9485;49.386;8.674;2023-09-18T00:26:44;99597.84;;;27.34
18713;BMP280;9485;49.386;8.674;2023-09-18T00:32:06;99582.41;;;27.42
18713;BMP280;9485;49.386;8.674;2023-09-18T00:37:30;99576.75;;;27.44
18713;BMP280;9485;49.386;8.674;2023-09-18T00:42:51;99578.38;;;27.47
18713;BMP280;9485;49.386;8.674;2023-09-18T00:48:12;99566.44;;;27.41
18713;BMP280;9485;49.386;8.674;2023-09-18T00:53:38;99552.19;;;27.34
18713;BMP280;9485;49.386;8.674;2023-09-18T00:58:59;99558.00;;;27.23
18713;BMP280;9485;49.386;8.674;2023-09-18T01:04:25;99557.63;;;27.28
18713;BMP280;9485;49.386;8.674;2023-09-18T01:09:49;99564.50;;;27.46
18713;BMP280;9485;49.386;8.674;2023-09-18T01:15:21;99564.00;;;27.49
18713;BMP280;9485;49.386;8.674;2023-09-18T01:20:43;99577.63;;;27.47
18713;BMP280;9485;49.386;8.674;2023-09-18T01:26:07;99572.59;;;27.47
18713;BMP280;9485;49.386;8.674;2023-09-18T01:31:28;99564.63;;;27.48
18713;BMP280;9485;49.386;8.674;2023-09-18T01:36:50;99563.25;;;27.49
18713;BMP280;9485;49.386;8.674;2023-09-18T01:42:13;99559.72;;;27.50
18713;BMP280;9485;49.386;8.674;2023-09-18T01:47:33;99573.69;;;27.54
18713;BMP280;9485;49.386;8.674;2023-09-18T01:52:56;99655.00;;;27.56
18713;BMP280;9485;49.386;8.674;2023-09-18T01:58:17;99670.94;;;27.21
18713;BMP280;9485;49.386;8.674;2023-09-18T02:03:39;99665.72;;;26.41
18713;BMP280;9485;49.386;8.674;2023-09-18T02:09:01;99650.91;;;25.73
18713;BMP280;9485;49.386;8.674;2023-09-18T02:14:24;99632.50;;;25.26
18713;BMP280;9485;49.386;8.674;2023-09-18T02:19:44;99656.47;;;24.99
18713;BMP280;9485;49.386;8.674;2023-09-18T02:25:06;99664.00;;;24.73
18713;BMP280;9485;49.386;8.674;2023-09-18T02:30:29;99673.00;;;24.58
18713;BMP280;9485;49.386;8.674;2023-09-18T02:35:50;99690.16;;;24.56
18713;BMP280;9485;49.386;8.674;2023-09-18T02:41:11;99692.31;;;24.56
18713;BMP280;9485;49.386;8.674;2023-09-18T02:46:33;99677.69;;;24.63
18713;BMP280;9485;49.386;8.674;2023-09-18T02:51:54;99664.94;;;24.66
18713;BMP280;9485;49.386;8.674;2023-09-18T02:57:16;99662.94;;;24.69
18713;BMP280;9485;49.386;8.674;2023-09-18T03:02:38;99612.78;;;24.83
18713;BMP280;9485;49.386;8.674;2023-09-18T03:07:59;99574.88;;;24.89
18713;BMP280;9485;49.386;8.674;2023-09-18T03:13:21;99590.16;;;24.70
18713;BMP280;9485;49.386;8.674;2023-09-18T03:18:44;99609.63;;;24.70
18713;BMP280;9485;49.386;8.674;2023-09-18T03:24:06;99620.09;;;24.75
18713;BMP280;9485;49.386;8.674;2023-09-18T03:29:28;99626.16;;;24.79
18713;BMP280;9485;49.386;8.674;2023-09-18T03:34:52;99638.31;;;24.77
18713;BMP280;9485;49.386;8.674;2023-09-18T03:40:16;99659.59;;;24.72
18713;BMP280;9485;49.386;8.674;2023-09-18T03:45:38;99693.34;;;24.70
18713;BMP280;9485;49.386;8.674;2023-09-18T03:51:03;99683.16;;;24.69
18713;BMP280;9485;49.386;8.674;2023-09-18T03:56:25;99706.56;;;24.63
18713;BMP280;9485;49.386;8.674;2023-09-18T04:01:45;99697.63;;;24.59
18713;BMP280;9485;49.386;8.674;2023-09-18T04:07:08;99718.75;;;24.52
18713;BMP280;9485;49.386;8.674;2023-09-18T04:12:31;99720.56;;;24.01
18713;BMP280;9485;49.386;8.674;2023-09-18T04:17:51;99710.91;;;22.63
18713;BMP280;9485;49.386;8.674;2023-09-18T04:23:21;99692.91;;;22.02
18713;BMP280;9485;49.386;8.674;2023-09-18T04:28:43;99657.03;;;21.52
18713;BMP280;9485;49.386;8.674;2023-09-18T04:34:04;99629.28;;;21.14
18713;BMP280;9485;49.386;8.674;2023-09-18T04:39:28;99622.03;;;20.88
18713;BMP280;9485;49.386;8.674;2023-09-18T04:44:52;99607.59;;;20.79
18713;BMP280;9485;49.386;8.674;2023-09-18T04:50:14;99605.13;;;20.75
18713;BMP280;9485;49.386;8.674;2023-09-18T04:55:36;99576.97;;;20.81
18713;BMP280;9485;49.386;8.674;2023-09-18T05:00:59;99562.53;;;20.89
18713;BMP280;9485;49.386;8.674;2023-09-18T05:06:20;99566.88;;;20.97
18713;BMP280;9485;49.386;8.674;2023-09-18T05:11:43;99548.97;;;21.06
18713;BMP280;9485;49.386;8.674;2023-09-18T05:17:04;99562.47;;;21.13
18713;BMP280;9485;49.386;8.674;2023-09-18T05:22:24;99557.38;;;21.28
18713;BMP280;9485;49.386;8.674;2023-09-18T05:27:47;99548.97;;;21.40
18713;BMP280;9485;49.386;8.674;2023-09-18T05:33:08;99593.84;;;21.52
18713;BMP280;9485;49.386;8.674;2023-09-18T05:38:31;99580.00;;;21.58
18713;BMP280;9485;49.386;8.674;2023-09-18T05:43:56;99588.69;;;21.68
18713;BMP280;9485;49.386;8.674;2023-09-18T05:49:17;99634.25;;;21.71
18713;BMP280;9485;49.386;8.674;2023-09-18T05:54:39;99658.66;;;21.63
18713;BMP280;9485;49.386;8.674;2023-09-18T06:00:01;99659.94;;;21.69
18713;BMP280;9485;49.386;8.674;2023-09-18T06:05:31;99637.22;;;21.81
18713;BMP280;9485;49.386;8.674;2023-09-18T06:10:54;99631.63;;;21.83
18713;BMP280;9485;49.386;8.674;2023-09-18T06:16:18;99649.53;;;21.91
18713;BMP280;9485;49.386;8.674;2023-09-18T06:21:40;99659.16;;;22.02
18713;BMP280;9485;49.386;8.674;2023-09-18T06:27:04;99680.44;;;22.16
18713;BMP280;9485;49.386;8.674;2023-09-18T06:32:28;99690.16;;;22.21
18713;BMP280;9485;49.386;8.674;2023-09-18T06:37:49;99705.59;;;22.33
18713;BMP280;9485;49.386;8.674;2023-09-18T06:43:11;99714.44;;;22.27
18713;BMP280;9485;49.386;8.674;2023-09-18T06:48:33;99713.28;;;22.30
18713;BMP280;9485;49.386;8.674;2023-09-18T06:53:54;99724.19;;;22.32
18713;BMP280;9485;49.386;8.674;2023-09-18T06:59:16;99736.19;;;22.38
18713;BMP280;9485;49.386;8.674;2023-09-18T07:04:38;99734.91;;;22.48
18713;BMP280;9485;49.386;8.674;2023-09-18T07:10:05;99745.88;;;22.59
18713;BMP280;9485;49.386;8.674;2023-09-18T07:15:26;99756.53;;;22.66
18713;BMP280;9485;49.386;8.674;2023-09-18T07:20:48;99775.06;;;22.72
18713;BMP280;9485;49.386;8.674;2023-09-18T07:26:08;99787.81;;;22.79
18713;BMP280;9485;49.386;8.674;2023-09-18T07:31:29;99783.94;;;22.84
18713;BMP280;9485;49.386;8.674;2023-09-18T07:36:51;99783.81;;;22.91
18713;BMP280;9485;49.386;8.674;2023-09-18T07:42:15;99786.09;;;22.93
18713;BMP280;9485;49.386;8.674;2023-09-18T07:47:36;99789.56;;;22.91
18713;BMP280;9485;49.386;8.674;2023-09-18T07:52:59;99793.97;;;22.92
18713;BMP280;9485;49.386;8.674;2023-09-18T07:58:20;99817.94;;;22.95
18713;BMP280;9485;49.386;8.674;2023-09-18T08:03:41;99808.38;;;23.09
18713;BMP280;9485;49.386;8.674;2023-09-18T08:09:04;99814.19;;;23.19
18713;BMP280;9485;49.386;8.674;2023-09-18T08:14:27;99824.66;;;23.24
18713;BMP280;9485;49.386;8.674;2023-09-18T08:19:50;99803.88;;;23.25
18713;BMP280;9485;49.386;8.674;2023-09-18T08:25:13;99799.03;;;23.28
18713;BMP280;9485;49.386;8.674;2023-09-18T08:30:34;99789.38;;;23.33
18713;BMP280;9485;49.386;8.674;2023-09-18T08:35:56;99791.47;;;23.32
18713;BMP280;9485;49.386;8.674;2023-09-18T08:41:20;99770.81;;;23.17
18713;BMP280;9485;49.386;8.674;2023-09-18T08:46:46;99752.56;;;23.05
18713;BMP280;9485;49.386;8.674;2023-09-18T08:52:08;99771.44;;;22.98
18713;BMP280;9485;49.386;8.674;2023-09-18T08:57:32;99757.72;;;22.89
18713;BMP280;9485;49.386;8.674;2023-09-18T09:02:52;99751.19;;;22.79
18713;BMP280;9485;49.386;8.674;2023-09-18T09:08:13;99766.19;;;22.78
18713;BMP280;9485;49.386;8.674;2023-09-18T09:13:36;99771.41;;;22.72
18713;BMP280;9485;49.386;8.674;2023-09-18T09:18:57;99793.84;;;22.73
18713;BMP280;9485;49.386;8.674;2023-09-18T09:24:19;99794.09;;;22.85
18713;BMP280;9485;49.386;8.674;2023-09-18T09:30:00;99818.00;;;23.04
18713;BMP280;9485;49.386;8.674;2023-09-18T09:35:25;99825.78;;;23.11
18713;BMP280;9485;49.386;8.674;2023-09-18T09:40:47;99860.94;;;23.10
18713;BMP280;9485;49.386;8.674;2023-09-18T09:46:16;99852.91;;;23.08
18713;BMP280;9485;49.386;8.674;2023-09-18T09:51:38;99840.53;;;23.15
18713;BMP280;9485;49.386;8.674;2023-09-18T09:57:02;99819.00;;;23.16
18713;BMP280;9485;49.386;8.674;2023-09-18T10:02:25;99809.34;;;23.21
18713;BMP280;9485;49.386;8.674;2023-09-18T10:07:46;99816.06;;;23.33
18713;BMP280;9485;49.386;8.674;2023-09-18T10:13:13;99810.03;;;23.39
18713;BMP280;9485;49.386;8.674;2023-09-18T10:18:44;99796.09;;;23.45
18713;BMP280;9485;49.386;8.674;2023-09-18T10:24:15;99800.41;;;23.62
18713;BMP280;9485;49.386;8.674;2023-09-18T10:29:40;99807.25;;;23.67
18713;BMP280;9485;49.386;8.674;2023-09-18T10:35:06;99810.69;;;23.82
18713;BMP280;9485;49.386;8.674;2023-09-18T10:40:31;99826.34;;;23.98
18713;BMP280;9485;49.386;8.674;2023-09-18T10:45:54;99812.13;;;24.28
18713;BMP280;9485;49.386;8.674;2023-09-18T10:51:21;99804.72;;;24.54
18713;BMP280;9485;49.386;8.674;2023-09-18T10:56:43;99795.91;;;24.71
18713;BMP280;9485;49.386;8.674;2023-09-18T11:02:04;99804.56;;;24.71
18713;BMP280;9485;49.386;8.674;2023-09-18T11:07:27;99811.81;;;25.09
18713;BMP280;9485;49.386;8.674;2023-09-18T11:12:48;99803.06;;;25.38
18713;BMP280;9485;49.386;8.674;2023-09-18T11:18:10;99804.63;;;25.69
18713;BMP280;9485;49.386;8.674;2023-09-18T11:23:37;99790.97;;;25.90
18713;BMP280;9485;49.386;8.674;2023-09-18T11:29:06;99795.47;;;26.03
18713;BMP280;9485;49.386;8.674;2023-09-18T11:34:30;99782.31;;;26.11
18713;BMP280;9485;49.386;8.674;2023-09-18T11:39:54;99811.50;;;25.94
18713;BMP280;9485;49.386;8.674;2023-09-18T11:45:17;99813.91;;;25.77
18713;BMP280;9485;49.386;8.674;2023-09-18T11:50:41;99822.03;;;25.90
18713;BMP280;9485;49.386;8.674;2023-09-18T11:56:10;99818.00;;;26.04
18713;BMP280;9485;49.386;8.674;2023-09-18T12:01:34;99826.84;;;26.48
18713;BMP280;9485;49.386;8.674;2023-09-18T12:06:55;99815.34;;;26.92
18713;BMP280;9485;49.386;8.674;2023-09-18T12:12:17;99830.06;;;27.17
18713;BMP280;9485;49.386;8.674;2023-09-18T12:17:38;99814.66;;;27.03
18713;BMP280;9485;49.386;8.674;2023-09-18T12:23:00;99803.22;;;26.84
18713;BMP280;9485;49.386;8.674;2023-09-18T12:28:26;99800.97;;;26.82
18713;BMP280;9485;49.386;8.674;2023-09-18T12:33:48;99812.72;;;26.96
18713;BMP280;9485;49.386;8.674;2023-09-18T12:39:08;99795.31;;;26.96
18713;BMP280;9485;49.386;8.674;2023-09-18T12:44:31;99799.34;;;26.91
18713;BMP280;9485;49.386;8.674;2023-09-18T12:49:52;99806.53;;;26.90
18713;BMP280;9485;49.386;8.674;2023-09-18T12:55:23;99803.00;;;26.91
18713;BMP280;9485;49.386;8.674;2023-09-18T13:00:49;99802.50;;;26.95
18713;BMP280;9485;49.386;8.674;2023-09-18T13:06:12;99793.13;;;27.06
18713;BMP280;9485;49.386;8.674;2023-09-18T13:11:51;99798.09;;;27.37
18713;BMP280;9485;49.386;8.674;2023-09-18T13:17:16;99783.59;;;27.37
18713;BMP280;9485;49.386;8.674;2023-09-18T13:22:39;99776.75;;;27.22
18713;BMP280;9485;49.386;8.674;2023-09-18T13:28:01;99770.69;;;27.06
18713;BMP280;9485;49.386;8.674;2023-09-18T13:33:25;99764.91;;;27.06
18713;BMP280;9485;49.386;8.674;2023-09-18T13:38:46;99772.47;;;27.23
18713;BMP280;9485;49.386;8.674;2023-09-18T13:44:07;99769.31;;;27.07
18713;BMP280;9485;49.386;8.674;2023-09-18T13:49:30;99761.00;;;26.81
18713;BMP280;9485;49.386;8.674;2023-09-18T13:54:51;99767.25;;;26.66
18713;BMP280;9485;49.386;8.674;2023-09-18T14:00:13;99753.59;;;26.78
18713;BMP280;9485;49.386;8.674;2023-09-18T14:05:35;99745.69;;;26.90
18713;BMP280;9485;49.386;8.674;2023-09-18T14:10:55;99749.06;;;27.19
18713;BMP280;9485;49.386;8.674;2023-09-18T14:16:16;99735.56;;;27.57
18713;BMP280;9485;49.386;8.674;2023-09-18T14:21:39;99734.09;;;28.27
18713;BMP280;9485;49.386;8.674;2023-09-18T14:27:00;99734.25;;;28.54
18713;BMP280;9485;49.386;8.674;2023-09-18T14:32:21;99720.69;;;28.45
18713;BMP280;9485;49.386;8.674;2023-09-18T14:37:43;99710.66;;;28.23
18713;BMP280;9485;49.386;8.674;2023-09-18T14:43:04;99705.66;;;28.01
18713;BMP280;9485;49.386;8.674;2023-09-18T14:48:26;99702.28;;;27.81
18713;BMP280;9485;49.386;8.674;2023-09-18T14:53:49;99691.84;;;27.76
18713;BMP280;9485;49.386;8.674;2023-09-18T14:59:11;99678.47;;;27.71
18713;BMP280;9485;49.386;8.674;2023-09-18T15:04:32;99665.34;;;27.59
18713;BMP280;9485;49.386;8.674;2023-09-18T15:09:54;99661.31;;;27.52
18713;BMP280;9485;49.386;8.674;2023-09-18T15:15:15;99648.22;;;27.40
18713;BMP280;9485;49.386;8.674;2023-09-18T15:20:36;99650.38;;;27.28
18713;BMP280;9485;49.386;8.674;2023-09-18T15:25:59;99649.38;;;27.24
18713;BMP280;9485;49.386;8.674;2023-09-18T15:31:20;99646.59;;;27.03
18713;BMP280;9485;49.386;8.674;2023-09-18T15:36:41;99627.41;;;26.86
18713;BMP280;9485;49.386;8.674;2023-09-18T15:42:03;99615.47;;;26.80
18713;BMP280;9485;49.386;8.674;2023-09-18T15:47:24;99615.44;;;26.69
18713;BMP280;9485;49.386;8.674;2023-09-18T15:52:45;99610.41;;;26.58
18713;BMP280;9485;49.386;8.674;2023-09-18T15:58:09;99624.22;;;26.48
18713;BMP280;9485;49.386;8.674;2023-09-18T16:03:31;99639.69;;;26.41
18713;BMP280;9485;49.386;8.674;2023-09-18T16:08:52;99640.78;;;26.36
18713;BMP280;9485;49.386;8.674;2023-09-18T16:14:17;99643.53;;;26.34
18713;BMP280;9485;49.386;8.674;2023-09-18T16:19:39;99632.69;;;26.35
18713;BMP280;9485;49.386;8.674;2023-09-18T16:25:00;99637.97;;;26.27
18713;BMP280;9485;49.386;8.674;2023-09-18T16:30:22;99635.09;;;26.27
18713;BMP280;9485;49.386;8.674;2023-09-18T16:35:44;99633.44;;;26.24
18713;BMP280;9485;49.386;8.674;2023-09-18T16:41:06;99627.44;;;26.10
18713;BMP280;9485;49.386;8.674;2023-09-18T16:46:28;99621.00;;;26.00
18713;BMP280;9485;49.386;8.674;2023-09-18T16:51:49;99629.78;;;25.91
18713;BMP280;9485;49.386;8.674;2023-09-18T16:57:11;99633.63;;;25.84
18713;BMP280;9485;49.386;8.674;2023-09-18T17:02:35;99631.56;;;25.75
18713;BMP280;9485;49.386;8.674;2023-09-18T17:07:55;99654.59;;;25.64
18713;BMP280;9485;49.386;8.674;2023-09-18T17:13:16;99658.78;;;25.51
18713;BMP280;9485;49.386;8.674;2023-09-18T17:18:40;99667.38;;;25.40
18713;BMP280;9485;49.386;8.674;2023-09-18T17:24:01;99673.50;;;25.34
18713;BMP280;9485;49.386;8.674;2023-09-18T17:29:24;99678.25;;;25.30
18713;BMP280;9485;49.386;8.674;2023-09-18T17:34:48;99680.97;;;25.28
18713;BMP280;9485;49.386;8.674;2023-09-18T17:40:11;99723.28;;;25.23
18713;BMP280;9485;49.386;8.674;2023-09-18T17:45:34;99787.22;;;24.33
18713;BMP280;9485;49.386;8.674;2023-09-18T17:50:56;99786.56;;;23.16
18713;BMP280;9485;49.386;8.674;2023-09-18T17:56:17;99751.38;;;21.39
18713;BMP280;9485;49.386;8.674;2023-09-18T18:01:38;99733.03;;;20.39
18713;BMP280;9485;49.386;8.674;2023-09-18T18:07:00;99707.59;;;19.96
18713;BMP280;9485;49.386;8.674;2023-09-18T18:12:21;99674.59;;;19.73
18713;BMP280;9485;49.386;8.674;2023-09-18T18:17:43;99684.97;;;19.46
18713;BMP280;9485;49.386;8.674;2023-09-18T18:23:05;99697.00;;;19.37
18713;BMP280;9485;49.386;8.674;2023-09-18T18:28:26;99697.41;;;19.26
18713;BMP280;9485;49.386;8.674;2023-09-18T18:33:47;99715.16;;;19.25
18713;BMP280;9485;49.386;8.674;2023-09-18T18:39:09;99717.44;;;19.26
18713;BMP280;9485;49.386;8.674;2023-09-18T18:44:30;99725.66;;;19.22
18713;BMP280;9485;49.386;8.674;2023-09-18T18:49:51;99742.81;;;19.22
18713;BMP280;9485;49.386;8.674;2023-09-18T18:55:15;99719.16;;;19.22
18713;BMP280;9485;49.386;8.674;2023-09-18T19:00:38;99744.91;;;19.22
18713;BMP280;9485;49.386;8.674;2023-09-18T19:06:01;99746.63;;;19.25
18713;BMP280;9485;49.386;8.674;2023-09-18T19:11:25;99757.50;;;19.34
18713;BMP280;9485;49.386;8.674;2023-09-18T19:16:46;99763.25;;;19.41
18713;BMP280;9485;49.386;8.674;2023-09-18T19:22:06;99757.88;;;19.53
18713;BMP280;9485;49.386;8.674;2023-09-18T19:27:28;99775.06;;;19.60
18713;BMP280;9485;49.386;8.674;2023-09-18T19:32:49;99773.53;;;19.66
18713;BMP280;9485;49.386;8.674;2023-09-18T19:38:10;99780.75;;;19.82
18713;BMP280;9485;49.386;8.674;2023-09-18T19:43:32;99789.53;;;19.92
18713;BMP280;9485;49.386;8.674;2023-09-18T19:48:53;99783.81;;;19.92
18713;BMP280;9485;49.386;8.674;2023-09-18T19:54:14;99771.22;;;19.87
18713;BMP280;9485;49.386;8.674;2023-09-18T19:59:36;99781.88;;;19.87
18713;BMP280;9485;49.386;8.674;2023-09-18T20:04:56;99776.75;;;19.85
18713;BMP280;9485;49.386;8.674;2023-09-18T20:10:19;99797.16;;;19.89
18713;BMP280;9485;49.386;8.674;2023-09-18T20:15:41;99798.16;;;19.99
18713;BMP280;9485;49.386;8.674;2023-09-18T20:21:02;99815.69;;;20.11
18713;BMP280;9485;49.386;8.674;2023-09-18T20:26:27;99814.91;;;20.10
18713;BMP280;9485;49.386;8.674;2023-09-18T20:31:50;99825.25;;;20.13
18713;BMP280;9485;49.386;8.674;2023-09-18T20:37:11;99818.56;;;20.11
18713;BMP280;9485;49.386;8.674;2023-09-18T20:42:32;99822.03;;;20.09
18713;BMP280;9485;49.386;8.674;2023-09-18T20:47:54;99824.69;;;20.07
18713;BMP280;9485;49.386;8.674;2023-09-18T20:53:15;99832.34;;;20.05
18713;BMP280;9485;49.386;8.674;2023-09-18T20:58:37;99838.81;;;20.05
18713;BMP280;9485;49.386;8.674;2023-09-18T21:03:59;99843.41;;;20.08
18713;BMP280;9485;49.386;8.674;2023-09-18T21:09:23;99837.50;;;20.06
18713;BMP280;9485;49.386;8.674;2023-09-18T21:14:44;99851.06;;;20.06
18713;BMP280;9485;49.386;8.674;2023-09-18T21:20:08;99846.84;;;20.07
18713;BMP280;9485;49.386;8.674;2023-09-18T21:25:30;99857.56;;;20.06
18713;BMP280;9485;49.386;8.674;2023-09-18T21:30:52;99856.78;;;20.06
18713;BMP280;9485;49.386;8.674;2023-09-18T21:36:16;99857.94;;;20.03
18713;BMP280;9485;49.386;8.674;2023-09-18T21:41:38;99867.66;;;20.00
18713;BMP280;9485;49.386;8.674;2023-09-18T21:46:59;99869.97;;;20.01
18713;BMP280;9485;49.386;8.674;2023-09-18T21:52:21;99860.81;;;19.95
18713;BMP280;9485;49.386;8.674;2023-09-18T21:57:42;99875.50;;;19.92
18713;BMP280;9485;49.386;8.674;2023-09-18T22:03:04;99869.75;;;19.84
18713;BMP280;9485;49.386;8.674;2023-09-18T22:08:26;99878.94;;;19.83
18713;BMP280;9485;49.386;8.674;2023-09-18T22:13:47;99886.19;;;19.84
18713;BMP280;9485;49.386;8.674;2023-09-18T22:19:08;99890.94;;;19.74
18713;BMP280;9485;49.386;8.674;2023-09-18T22:24:30;99876.06;;;19.68
18713;BMP280;9485;49.386;8.674;2023-09-18T22:29:51;99906.25;;;19.69
18713;BMP280;9485;49.386;8.674;2023-09-18T22:35:12;99908.69;;;19.65
18713;BMP280;9485;49.386;8.674;2023-09-18T22:58:02;99912.53;;;19.67
18713;BMP280;9485;49.386;8.674;2023-09-18T23:03:24;99913.88;;;19.74
18713;BMP280;9485;49.386;8.674;2023-09-18T23:08:46;99930.47;;;19.75
18713;BMP280;9485;49.386;8.674;2023-09-18T23:14:09;99925.34;;;19.81
18713;BMP280;9485;49.386;8.674;2023-09-18T23:19:30;99932.59;;;19.82
18713;BMP280;9485;49.386;8.674;2023-09-18T23:24:50;99929.16;;;19.84
18713;BMP280;9485;49.386;8.674;2023-09-18T23:30:16;99941.38;;;19.84
18713;BMP280;9485;49.386;8.674;2023-09-18T23:35:37;99945.41;;;19.89
18713;BMP280;9485;49.386;8.674;2023-09-18T23:40:58;99953.06;;;19.94
18713;BMP280;9485;49.386;8.674;2023-09-18T23:46:20;99954.00;;;19.89
18713;BMP280;9485;49.386;8.674;2023-09-18T23:51:45;99953.41;;;19.90
18713;BMP280;9485;49.386;8.674;2023-09-18T23:57:06;99954.56;;;19.87
